Portada
METAR-TAF:

METAR-TAF

Aeropuertos :

Aeropuerto Internacional de Vladivostok

Vladivostok, Rusia

latitud: 43-07N, longitud: 131-56E, altitud: 184 m

Observación

El informe se hizo hace 20 minutos, a las 06:00 UTC
Viento 2 kt con dirección variable
Temperatura -2°C
Humedad 13%
Presión 1019 hPa
Visibilidad 10 km o más

METAR: UHWW 190600Z VRB01MPS 9999 NSC M02/M27 Q1019 R25L/0///70 NOSIG RMK QFE763

Hora: 16:20 (06:20 UTC)

Pronóstico

El informe se hizo hace 1 hora y 20 minutos, a las 05:00 UTC
Pronóstico válido del 19 a las 06 UTC al 20 a las 06 UTC
Viento 6 kt del norte
Visibilidad 10 km o más
Nubes dispersas a una altura de 3000 ft
Evolucionando progresivamente
del 19 a las 08 UTC al 19 a las 10 UTC
Visibilidad: 5000 m
calima

TAF: UHWW 190500Z 1906/2006 36003MPS 9999 SCT030 BECMG 1908/1910 5000 HZ NSC

Observaciones y pronósticos meteorológicos de más de 4000 aeropuertos (mensajes METAR y TAF).

Los puntos amarillos y rojos representan las estaciones disponibles.

Ponga el ratón en el punto deseado para ver el nombre de la estación.

Haga clic para ver las observaciones y los pronósticos meteorológicos.

Para cambiar el mapa : haga clic en los botones verdes con una cruz de color negro para hacer un zoom, en el botón verde con un guión para alejar o en las flechas verdes para mapas adyacentes.


METAR-TAF: